createdAt,value
2019-05-01T00:01:11.131Z,159.75
2019-05-01T00:04:00.939Z,159.85
2019-05-01T00:06:34.846Z,161.28
2019-05-01T00:09:01.927Z,155.72
2019-05-01T00:11:33.106Z,157.80
2019-05-01T00:14:00.267Z,156.50
2019-05-01T00:16:29.436Z,157.90
2019-05-01T00:18:56.540Z,158.00
2019-05-01T00:21:23.558Z,156.93
2019-05-01T00:23:50.957Z,157.05
2019-05-01T00:26:19.129Z,158.82
2019-05-01T00:28:47.476Z,155.35
2019-05-01T00:31:15.125Z,155.65
2019-05-01T00:33:43.413Z,156.90
2019-05-01T00:36:10.568Z,156.43
2019-05-01T00:38:38.012Z,155.95
2019-05-01T00:41:05.044Z,155.27
2019-05-01T00:43:32.079Z,155.90
2019-05-01T00:45:59.379Z,157.57
2019-05-01T00:48:26.428Z,155.82
2019-05-01T00:50:53.543Z,156.57
2019-05-01T00:53:20.601Z,156.55
2019-05-01T00:56:07.248Z,157.40
2019-05-01T00:59:03.269Z,158.78
2019-05-01T01:01:49.636Z,156.45
2019-05-01T01:04:18.624Z,155.78
2019-05-01T01:06:46.033Z,158.85
2019-05-01T01:09:13.636Z,158.27
2019-05-01T01:11:40.708Z,158.05
2019-05-01T01:14:07.959Z,158.57
2019-05-01T01:16:36.109Z,159.55
2019-05-01T01:19:03.694Z,158.10
2019-05-01T01:21:31.104Z,159.03
2019-05-01T01:23:59.072Z,159.37
2019-05-01T01:26:26.419Z,157.03
2019-05-01T01:28:53.483Z,157.93
2019-05-01T01:31:20.638Z,159.87
2019-05-01T01:33:48.012Z,158.52
2019-05-01T01:36:17.248Z,158.18
2019-05-01T01:38:44.357Z,155.40
2019-05-01T01:41:11.501Z,156.70
2019-05-01T01:43:47.932Z,156.05
2019-05-01T01:46:17.355Z,155.63
2019-05-01T01:48:44.615Z,157.65
2019-05-01T01:51:11.650Z,158.03
2019-05-01T01:53:39.046Z,156.02
2019-05-01T01:56:06.259Z,159.37
2019-05-01T01:58:33.650Z,159.25
2019-05-01T02:01:18.463Z,158.97
2019-05-01T02:03:49.277Z,158.50
2019-05-01T02:06:16.650Z,159.18
2019-05-01T02:08:55.952Z,160.00
2019-05-01T02:11:13.288Z,158.50
2019-05-01T02:13:40.566Z,159.15
2019-05-01T02:16:07.666Z,158.27
2019-05-01T02:18:35.157Z,156.57
2019-05-01T02:21:02.239Z,155.70
2019-05-01T02:23:29.309Z,157.10
2019-05-01T02:25:56.376Z,156.50
2019-05-01T02:28:30.426Z,157.90
2019-05-01T02:31:28.345Z,156.12
2019-05-01T02:33:57.105Z,158.78
2019-05-01T02:36:27.517Z,156.65
2019-05-01T02:38:56.838Z,155.37
2019-05-01T02:41:29.540Z,155.93
2019-05-01T02:44:04.972Z,155.93
2019-05-01T02:46:35.030Z,155.82
2019-05-01T02:49:07.037Z,156.70
2019-05-01T02:51:37.631Z,156.50
2019-05-01T02:54:05.458Z,157.72
2019-05-01T02:57:00.284Z,155.12
2019-05-01T02:59:29.602Z,155.43
2019-05-01T03:01:58.666Z,156.02
2019-05-01T03:04:26.464Z,157.88
2019-05-01T03:06:53.790Z,155.90
2019-05-01T03:09:22.151Z,155.32
2019-05-01T03:11:52.638Z,157.52
2019-05-01T03:14:22.570Z,156.30
2019-05-01T03:16:53.128Z,155.40
2019-05-01T03:19:41.095Z,156.25
2019-05-01T03:22:28.085Z,156.95
2019-05-01T03:24:55.678Z,155.82
2019-05-01T03:27:25.835Z,160.35
2019-05-01T03:29:53.211Z,159.27
2019-05-01T03:32:20.712Z,157.93
2019-05-01T03:34:52.314Z,157.47
2019-05-01T03:37:17.209Z,159.27
2019-05-01T03:39:44.243Z,158.00
2019-05-01T03:42:11.606Z,156.20
2019-05-01T03:44:39.072Z,156.37
2019-05-01T03:47:06.112Z,155.70
2019-05-01T03:49:33.380Z,157.12
2019-05-01T03:52:00.434Z,154.70
2019-05-01T03:54:28.243Z,154.85
2019-05-01T03:56:55.780Z,158.27
2019-05-01T03:59:26.270Z,155.65
2019-05-01T04:02:32.774Z,155.65
2019-05-01T04:04:48.965Z,156.43
2019-05-01T04:07:16.284Z,158.00
2019-05-01T04:09:43.698Z,158.60
2019-05-01T04:12:10.950Z,158.90
2019-05-01T04:14:39.227Z,159.20
2019-05-01T04:17:19.174Z,158.52
2019-05-01T04:19:47.058Z,153.97
2019-05-01T04:22:14.301Z,154.10
2019-05-01T04:24:43.727Z,156.52
2019-05-01T04:27:16.107Z,157.80
2019-05-01T04:29:56.041Z,158.03
2019-05-01T04:32:27.564Z,158.27
2019-05-01T04:35:20.010Z,155.55
2019-05-01T04:37:47.574Z,155.97
2019-05-01T04:40:19.081Z,157.20
2019-05-01T04:42:46.611Z,159.82
2019-05-01T04:45:14.772Z,158.50
2019-05-01T04:47:42.552Z,159.43
2019-05-01T04:50:10.348Z,158.27
2019-05-01T04:52:38.209Z,159.52
2019-05-01T04:55:07.888Z,158.35
2019-05-01T04:57:35.408Z,158.95
2019-05-01T05:00:03.743Z,158.45
2019-05-01T05:02:38.130Z,158.85
2019-05-01T05:05:07.742Z,160.22
2019-05-01T05:07:35.592Z,159.65
2019-05-01T05:10:04.657Z,161.62
2019-05-01T05:12:50.910Z,158.68
2019-05-01T05:15:31.838Z,160.63
2019-05-01T05:18:01.426Z,160.43
2019-05-01T05:20:30.413Z,161.10
2019-05-01T05:23:00.724Z,162.72
2019-05-01T05:25:27.931Z,163.43
2019-05-01T05:27:59.481Z,162.53
2019-05-01T05:30:27.713Z,163.57
2019-05-01T05:32:57.816Z,164.32
2019-05-01T05:35:26.046Z,165.62
2019-05-01T05:38:16.861Z,164.07
2019-05-01T05:40:44.716Z,165.28
2019-05-01T05:43:12.057Z,165.28
2019-05-01T05:45:39.593Z,166.25
2019-05-01T05:48:06.655Z,165.85
2019-05-01T05:50:43.309Z,163.97
2019-05-01T05:53:15.628Z,165.10
2019-05-01T05:55:51.280Z,165.92
2019-05-01T05:58:29.886Z,166.57
2019-05-01T06:01:38.267Z,167.87
2019-05-01T06:04:27.815Z,167.05
2019-05-01T06:07:14.381Z,170.62
2019-05-01T06:09:53.165Z,168.82
2019-05-01T06:12:41.623Z,170.05
2019-05-01T06:15:19.144Z,169.80
2019-05-01T06:18:06.127Z,171.15
2019-05-01T06:20:43.144Z,172.15
2019-05-01T06:23:29.991Z,171.15
2019-05-01T06:26:22.092Z,173.75
2019-05-01T06:28:50.196Z,170.80
2019-05-01T06:31:23.186Z,170.90
2019-05-01T06:33:53.133Z,171.72
2019-05-01T06:36:23.991Z,172.05
2019-05-01T06:38:52.267Z,175.87
2019-05-01T06:41:19.897Z,173.82
2019-05-01T06:44:07.542Z,174.62
2019-05-01T06:47:19.048Z,172.87
2019-05-01T06:50:20.201Z,172.32
2019-05-01T06:52:47.865Z,172.62
2019-05-01T06:55:15.112Z,171.13
2019-05-01T06:57:45.679Z,173.75
2019-05-01T07:00:16.953Z,174.00
2019-05-01T07:02:50.125Z,175.35
2019-05-01T07:05:20.198Z,175.50
2019-05-01T07:07:53.056Z,175.30
2019-05-01T07:10:29.853Z,177.75
2019-05-01T07:12:47.107Z,176.78
2019-05-01T07:15:14.384Z,178.85
2019-05-01T07:17:43.927Z,179.27
2019-05-01T07:20:20.331Z,181.07
2019-05-01T07:22:52.320Z,180.60
2019-05-01T07:25:22.232Z,180.63
2019-05-01T07:27:53.947Z,177.17
2019-05-01T07:30:29.936Z,176.47
2019-05-01T07:32:59.833Z,176.12
2019-05-01T07:35:32.999Z,177.38
2019-05-01T07:38:02.246Z,179.10
2019-05-01T07:40:32.001Z,178.25
2019-05-01T07:43:06.429Z,178.10
2019-05-01T07:45:56.157Z,181.47
2019-05-01T07:48:36.092Z,178.62
2019-05-01T07:51:07.012Z,182.35
2019-05-01T07:53:37.308Z,181.20
2019-05-01T07:56:07.302Z,180.60
2019-05-01T07:58:34.377Z,179.05
2019-05-01T08:01:13.209Z,178.38
2019-05-01T08:03:42.753Z,177.85
2019-05-01T08:06:16.331Z,176.57
2019-05-01T08:08:44.539Z,176.70
2019-05-01T08:11:11.572Z,176.70
2019-05-01T08:13:38.622Z,178.25
2019-05-01T08:16:07.032Z,180.45
2019-05-01T08:18:49.243Z,178.32
2019-05-01T08:21:34.299Z,177.57
2019-05-01T08:24:05.118Z,179.40
2019-05-01T08:26:32.160Z,184.95
2019-05-01T08:29:21.611Z,181.80
2019-05-01T08:32:17.259Z,184.10
2019-05-01T08:34:49.083Z,186.03
2019-05-01T08:37:17.807Z,187.32
2019-05-01T08:39:44.287Z,187.00
2019-05-01T08:42:11.702Z,182.72
2019-05-01T08:44:52.506Z,186.55
2019-05-01T08:47:27.747Z,188.65
2019-05-01T08:50:00.000Z,191.35
2019-05-01T08:52:27.075Z,189.85
2019-05-01T08:54:54.898Z,188.03
2019-05-01T08:57:22.391Z,186.90
2019-05-01T08:59:50.185Z,188.82
2019-05-01T09:02:18.985Z,188.03
2019-05-01T09:04:46.094Z,196.40
2019-05-01T09:07:14.632Z,195.43
2019-05-01T09:09:47.290Z,189.95
2019-05-01T09:12:14.198Z,184.78
2019-05-01T09:14:41.299Z,189.40
2019-05-01T09:17:08.389Z,188.62
2019-05-01T09:19:35.670Z,192.13
2019-05-01T09:22:04.149Z,190.75
2019-05-01T09:24:31.522Z,189.43
2019-05-01T09:27:09.971Z,188.70
2019-05-01T09:29:41.843Z,188.37
2019-05-01T09:32:25.030Z,188.72
2019-05-01T09:34:58.276Z,187.22
2019-05-01T09:37:33.994Z,189.65
2019-05-01T09:40:11.740Z,187.00
2019-05-01T09:42:42.856Z,190.55
2019-05-01T09:45:26.030Z,190.38
2019-05-01T09:47:55.239Z,187.70
2019-05-01T09:50:30.461Z,188.30
2019-05-01T09:53:15.226Z,189.52
2019-05-01T09:55:54.271Z,189.85
2019-05-01T09:58:37.858Z,189.03
2019-05-01T10:01:08.244Z,185.80
2019-05-01T10:03:37.477Z,190.77
2019-05-01T10:06:12.867Z,185.55
2019-05-01T10:08:44.360Z,184.82
2019-05-01T10:11:28.768Z,183.15
2019-05-01T10:14:04.159Z,184.37
2019-05-01T10:16:34.198Z,188.03
2019-05-01T10:19:10.859Z,184.43
2019-05-01T10:21:38.558Z,183.27
2019-05-01T10:24:05.619Z,185.80
2019-05-01T10:26:34.649Z,187.15
2019-05-01T10:29:15.412Z,182.22
2019-05-01T10:32:02.195Z,180.00
2019-05-01T10:34:38.723Z,180.40
2019-05-01T10:37:06.187Z,179.72
2019-05-01T10:39:33.245Z,186.90
2019-05-01T10:42:00.294Z,183.80
2019-05-01T10:44:28.023Z,185.22
2019-05-01T10:46:55.227Z,185.55
2019-05-01T10:49:22.461Z,180.30
2019-05-01T10:51:49.639Z,181.43
2019-05-01T10:54:16.696Z,181.80
2019-05-01T10:56:43.893Z,181.82
2019-05-01T10:59:12.164Z,186.67
2019-05-01T11:01:49.919Z,184.03
2019-05-01T11:04:17.111Z,183.03
2019-05-01T11:06:44.250Z,188.20
2019-05-01T11:09:12.898Z,185.82
2019-05-01T11:11:39.987Z,186.15
2019-05-01T11:14:07.049Z,181.82
2019-05-01T11:16:34.331Z,177.75
2019-05-01T11:19:01.572Z,182.50
2019-05-01T11:21:28.721Z,185.32
2019-05-01T11:23:55.777Z,182.07
2019-05-01T11:26:22.856Z,180.07
2019-05-01T11:28:51.203Z,180.15
2019-05-01T11:31:25.182Z,186.43
2019-05-01T11:34:14.073Z,184.67
2019-05-01T11:37:12.916Z,179.55
2019-05-01T11:39:44.667Z,179.93
2019-05-01T11:42:13.341Z,183.42
2019-05-01T11:44:41.872Z,181.28
2019-05-01T11:47:08.913Z,185.10
2019-05-01T11:49:36.436Z,184.82
2019-05-01T11:52:05.810Z,182.07
2019-05-01T11:54:35.612Z,186.05
2019-05-01T11:57:06.761Z,182.02
2019-05-01T11:59:40.589Z,186.47
2019-05-01T12:02:15.793Z,186.92
2019-05-01T12:04:43.955Z,187.37
2019-05-01T12:07:17.718Z,184.78
2019-05-01T12:10:04.873Z,181.67
2019-05-01T12:12:37.867Z,188.22
2019-05-01T12:15:09.584Z,185.55
2019-05-01T12:17:58.454Z,180.57
2019-05-01T12:21:07.319Z,187.32
2019-05-01T12:24:04.400Z,181.75
2019-05-01T12:26:37.107Z,178.55
2019-05-01T12:29:04.740Z,180.85
2019-05-01T12:31:44.633Z,177.85
2019-05-01T12:34:11.704Z,178.35
2019-05-01T12:36:41.151Z,182.62
2019-05-01T12:39:10.611Z,181.22
2019-05-01T12:41:49.289Z,182.25
2019-05-01T12:44:16.576Z,181.70
2019-05-01T12:46:50.675Z,180.37
2019-05-01T12:49:17.728Z,182.32
2019-05-01T12:51:46.926Z,179.78
2019-05-01T12:54:21.280Z,180.95
2019-05-01T12:56:52.652Z,178.57
2019-05-01T12:59:19.664Z,178.57
2019-05-01T13:01:47.945Z,176.18
2019-05-01T13:04:15.509Z,177.35
2019-05-01T13:06:49.414Z,176.02
2019-05-01T13:09:14.972Z,175.03
2019-05-01T13:11:44.648Z,177.38
2019-05-01T13:14:15.822Z,175.95
2019-05-01T13:16:44.741Z,181.12
2019-05-01T13:19:12.743Z,186.45
2019-05-01T13:21:43.074Z,185.20
2019-05-01T13:24:10.714Z,178.70
2019-05-01T13:26:47.291Z,176.85
2019-05-01T13:29:30.116Z,179.57
2019-05-01T13:32:36.062Z,180.57
2019-05-01T13:35:04.283Z,180.42
2019-05-01T13:37:33.771Z,184.90
2019-05-01T13:40:03.381Z,184.40
2019-05-01T13:43:05.393Z,178.10
2019-05-01T13:45:37.599Z,176.78
2019-05-01T13:48:06.776Z,173.32
2019-05-01T13:50:41.750Z,179.93
2019-05-01T13:53:12.044Z,183.18
2019-05-01T13:55:50.369Z,179.40
2019-05-01T13:58:22.439Z,174.07
2019-05-01T14:00:54.394Z,177.15
2019-05-01T14:03:26.128Z,176.45
2019-05-01T14:06:01.466Z,174.77
2019-05-01T14:08:35.889Z,173.38
2019-05-01T14:11:17.422Z,174.18
2019-05-01T14:18:41.997Z,174.85
2019-05-01T14:21:32.245Z,174.62
2019-05-01T14:24:22.142Z,171.75
2019-05-01T14:26:55.193Z,172.25
2019-05-01T14:29:40.478Z,170.30
2019-05-01T14:32:14.381Z,172.28
2019-05-01T14:35:14.649Z,174.30
2019-05-01T14:37:52.545Z,171.93
2019-05-01T14:40:23.711Z,171.65
2019-05-01T14:42:51.914Z,171.65
2019-05-01T14:45:19.377Z,169.60
2019-05-01T14:47:46.813Z,171.37
2019-05-01T14:50:15.019Z,172.37
2019-05-01T14:52:42.322Z,174.72
2019-05-01T14:55:09.933Z,172.93
2019-05-01T14:57:38.209Z,172.82
2019-05-01T15:00:05.835Z,171.77
2019-05-01T15:02:34.500Z,175.03
2019-05-01T15:05:12.514Z,180.25
2019-05-01T15:07:54.644Z,175.32
2019-05-01T15:10:28.713Z,173.97
2019-05-01T15:13:00.676Z,175.40
2019-05-01T15:15:42.082Z,172.75
2019-05-01T15:18:28.863Z,173.68
2019-05-01T15:20:56.577Z,169.82
2019-05-01T15:23:23.631Z,168.87
2019-05-01T15:25:54.780Z,176.00
2019-05-01T15:28:29.042Z,173.70
2019-05-01T15:30:56.138Z,173.43
2019-05-01T15:33:26.318Z,175.03
2019-05-01T15:35:53.517Z,177.50
2019-05-01T15:38:21.014Z,180.07
2019-05-01T15:40:58.070Z,177.12
2019-05-01T15:43:28.395Z,176.78
2019-05-01T15:45:55.723Z,176.18
2019-05-01T15:48:40.689Z,183.75
2019-05-01T15:51:08.157Z,178.55
2019-05-01T15:53:35.289Z,172.15
2019-05-01T15:56:02.374Z,175.50
2019-05-01T15:58:29.442Z,178.05
2019-05-01T16:01:18.793Z,175.05
2019-05-01T16:03:55.894Z,180.90
2019-05-01T16:06:23.351Z,183.82
2019-05-01T16:09:17.190Z,178.00
2019-05-01T16:12:04.105Z,178.30
2019-05-01T16:14:37.449Z,180.65
2019-05-01T16:17:04.567Z,180.60
2019-05-01T16:19:31.710Z,177.47
2019-05-01T16:22:01.299Z,180.57
2019-05-01T16:24:32.576Z,178.05
2019-05-01T16:30:00.189Z,180.65
2019-05-01T16:32:27.312Z,177.20
2019-05-01T16:34:57.150Z,178.75
2019-05-01T16:37:31.708Z,176.27
2019-05-01T16:40:31.149Z,172.25
2019-05-01T16:43:11.640Z,172.85
2019-05-01T16:45:38.693Z,169.82
2019-05-01T16:48:06.154Z,170.22
2019-05-01T16:50:45.475Z,171.75
2019-05-01T16:53:15.091Z,168.87
2019-05-01T16:55:43.488Z,169.70
2019-05-01T16:58:24.198Z,171.60
2019-05-01T17:07:02.388Z,169.13
2019-05-01T17:09:55.592Z,169.75
2019-05-01T17:12:52.770Z,175.97
2019-05-01T17:15:33.215Z,172.50
2019-05-01T17:18:00.794Z,172.20
2019-05-01T17:20:27.855Z,171.53
2019-05-01T17:22:57.224Z,173.85
2019-05-01T17:25:24.352Z,173.13
2019-05-01T17:27:58.324Z,176.05
2019-05-01T17:30:38.887Z,175.25
2019-05-01T17:33:06.790Z,174.87
2019-05-01T17:35:36.920Z,178.42
2019-05-01T17:38:10.225Z,175.95
2019-05-01T17:40:40.871Z,174.30
2019-05-01T17:43:15.456Z,173.35
2019-05-01T17:45:51.276Z,172.35
2019-05-01T17:48:23.819Z,171.80
2019-05-01T17:50:55.060Z,174.93
2019-05-01T17:53:21.149Z,173.82
2019-05-01T17:55:48.399Z,172.82
2019-05-01T17:58:15.714Z,176.78
2019-05-01T18:01:02.700Z,175.20
2019-05-01T18:03:47.386Z,174.95
2019-05-01T18:06:17.282Z,170.10
2019-05-01T18:08:44.810Z,174.47
2019-05-01T18:11:14.330Z,175.35
2019-05-01T18:13:41.264Z,173.20
2019-05-01T18:16:08.662Z,173.43
2019-05-01T18:18:35.976Z,172.22
2019-05-01T18:21:04.155Z,171.60
2019-05-01T18:23:49.863Z,171.37
2019-05-01T18:26:31.116Z,170.80
2019-05-01T18:29:22.991Z,172.65
2019-05-01T18:31:50.180Z,173.05
2019-05-01T18:34:18.548Z,170.57
2019-05-01T18:36:50.636Z,170.53
2019-05-01T18:39:25.788Z,169.17
2019-05-01T18:41:55.936Z,170.50
2019-05-01T18:44:23.093Z,169.90
2019-05-01T18:46:50.503Z,169.20
2019-05-01T18:49:17.607Z,167.50
2019-05-01T18:51:45.078Z,169.47
2019-05-01T18:54:36.467Z,169.57
2019-05-01T18:57:05.577Z,170.62
2019-05-01T18:59:35.054Z,171.13
2019-05-01T19:02:02.212Z,169.07
2019-05-01T19:04:29.773Z,167.50
2019-05-01T19:06:59.522Z,170.95
2019-05-01T19:09:30.593Z,166.73
2019-05-01T19:12:00.700Z,164.90
2019-05-01T19:14:32.927Z,166.35
2019-05-01T19:17:04.463Z,167.98
2019-05-01T19:19:40.981Z,167.20
2019-05-01T19:22:08.328Z,166.60
2019-05-01T19:24:38.202Z,166.55
2019-05-01T19:27:06.601Z,164.40
2019-05-01T19:29:41.024Z,166.50
2019-05-01T19:32:16.544Z,166.32
2019-05-01T19:34:45.743Z,168.22
2019-05-01T19:37:21.833Z,167.43
2019-05-01T19:39:53.785Z,168.15
2019-05-01T19:42:21.713Z,165.25
2019-05-01T19:44:55.482Z,164.95
2019-05-01T19:47:22.352Z,163.43
2019-05-01T19:49:54.417Z,166.35
2019-05-01T19:52:24.655Z,162.92
2019-05-01T19:54:52.336Z,164.47
2019-05-01T19:57:19.599Z,165.18
2019-05-01T19:59:47.199Z,162.43
2019-05-01T20:02:17.153Z,162.25
2019-05-01T20:04:45.177Z,162.47
2019-05-01T20:07:15.668Z,161.65
2019-05-01T20:09:56.639Z,164.72
2019-05-01T20:12:20.027Z,163.32
2019-05-01T20:14:47.386Z,163.00
2019-05-01T20:17:17.935Z,162.92
2019-05-01T20:19:48.419Z,162.05
2019-05-01T20:22:15.747Z,162.72
2019-05-01T20:24:44.297Z,163.12
2019-05-01T20:27:14.708Z,163.85
2019-05-01T20:29:46.293Z,161.88
2019-05-01T20:32:13.667Z,162.70
2019-05-01T20:34:40.946Z,162.65
2019-05-01T20:37:08.136Z,161.45
2019-05-01T20:39:36.688Z,163.43
2019-05-01T20:42:04.469Z,164.07
2019-05-01T20:44:32.965Z,162.32
2019-05-01T20:47:02.905Z,163.82
2019-05-01T20:49:41.337Z,163.60
2019-05-01T20:52:14.044Z,163.40
2019-05-01T20:54:47.956Z,162.27
2019-05-01T20:57:25.205Z,160.57
2019-05-01T21:00:01.636Z,159.03
2019-05-01T21:02:32.538Z,161.57
2019-05-01T21:05:50.924Z,161.55
2019-05-01T21:08:45.085Z,158.42
2019-05-01T21:11:25.542Z,160.20
2019-05-01T21:14:14.809Z,159.87
2019-05-01T21:16:25.022Z,159.03
2019-05-01T21:18:53.396Z,159.97
2019-05-01T21:21:20.543Z,158.52
2019-05-01T21:23:48.041Z,159.60
2019-05-01T21:26:16.616Z,160.88
2019-05-01T21:28:44.890Z,159.90
2019-05-01T21:31:13.790Z,161.47
2019-05-01T21:33:46.397Z,160.37
2019-05-01T21:36:10.142Z,159.25
2019-05-01T21:38:37.233Z,159.87
2019-05-01T21:41:04.314Z,159.43
2019-05-01T21:43:33.128Z,159.07
2019-05-01T21:46:00.675Z,159.35
2019-05-01T21:48:27.712Z,159.95
2019-05-01T21:50:58.083Z,160.15
2019-05-01T21:53:24.339Z,158.82
2019-05-01T21:55:51.422Z,158.87
2019-05-01T21:58:21.192Z,158.00
2019-05-01T22:00:49.358Z,158.57
2019-05-01T22:03:21.446Z,159.10
2019-05-01T22:05:50.418Z,160.45
2019-05-01T22:08:17.696Z,159.55
2019-05-01T22:10:51.643Z,158.80
2019-05-01T22:13:20.433Z,159.30
2019-05-01T22:15:52.367Z,157.72
2019-05-01T22:18:25.081Z,162.05
2019-05-01T22:20:59.316Z,158.00
2019-05-01T22:23:29.111Z,159.37
2019-05-01T22:25:57.022Z,159.10
2019-05-01T22:28:36.230Z,159.67
2019-05-01T22:31:35.404Z,159.20
2019-05-01T22:34:11.673Z,159.70
2019-05-01T22:36:38.938Z,158.22
2019-05-01T22:39:07.424Z,161.10
2019-05-01T22:41:36.951Z,160.18
2019-05-01T22:44:04.325Z,159.60
2019-05-01T22:46:33.857Z,160.93
2019-05-01T22:49:02.799Z,158.57
2019-05-01T22:51:31.645Z,158.22
2019-05-01T22:53:59.819Z,159.32
2019-05-01T22:56:26.900Z,157.75
2019-05-01T22:58:53.912Z,158.05
2019-05-01T23:01:22.214Z,158.50
2019-05-01T23:03:54.650Z,159.12
2019-05-01T23:06:21.813Z,159.32
2019-05-01T23:08:49.275Z,158.07
2019-05-01T23:11:20.216Z,158.90
2019-05-01T23:13:45.526Z,162.95
2019-05-01T23:16:13.680Z,158.37
2019-05-01T23:18:40.771Z,157.93
2019-05-01T23:21:13.969Z,158.35
2019-05-01T23:23:38.712Z,158.03
2019-05-01T23:26:05.770Z,157.97
2019-05-01T23:28:34.916Z,158.35
2019-05-01T23:31:01.931Z,157.60
2019-05-01T23:33:28.999Z,157.95
2019-05-01T23:35:56.065Z,157.65
2019-05-01T23:38:23.121Z,158.05
2019-05-01T23:40:52.754Z,157.65
2019-05-01T23:43:22.958Z,158.75
2019-05-01T23:45:48.467Z,157.62
2019-05-01T23:48:15.612Z,156.87
2019-05-01T23:50:42.788Z,157.30
2019-05-01T23:53:13.968Z,157.60
2019-05-01T23:55:39.235Z,157.62
2019-05-01T23:58:06.252Z,157.52
